createdAt,value
2019-04-30T00:01:19.422Z,12.02
2019-04-30T00:03:59.361Z,12.07
2019-04-30T00:06:34.374Z,11.98
2019-04-30T00:09:01.378Z,12.06
2019-04-30T00:11:32.792Z,12.06
2019-04-30T00:14:05.510Z,12.04
2019-04-30T00:16:39.810Z,12.10
2019-04-30T00:19:10.725Z,11.95
2019-04-30T00:21:41.414Z,12.09
2019-04-30T00:24:12.384Z,12.07
2019-04-30T00:26:45.043Z,12.07
2019-04-30T00:29:19.234Z,12.06
2019-04-30T00:31:48.867Z,12.11
2019-04-30T00:34:19.844Z,12.07
2019-04-30T00:36:50.727Z,12.03
2019-04-30T00:39:21.789Z,11.94
2019-04-30T00:41:52.773Z,11.99
2019-04-30T00:44:24.886Z,12.03
2019-04-30T00:47:00.575Z,12.07
2019-04-30T00:49:29.948Z,12.11
2019-04-30T00:52:00.827Z,12.06
2019-04-30T00:54:31.851Z,12.07
2019-04-30T00:57:04.511Z,12.12
2019-04-30T00:59:35.318Z,12.16
2019-04-30T01:02:19.977Z,12.19
2019-04-30T01:04:50.477Z,11.98
2019-04-30T01:07:21.377Z,11.97
2019-04-30T01:09:52.319Z,11.96
2019-04-30T01:12:28.939Z,11.93
2019-04-30T01:14:56.468Z,11.95
2019-04-30T01:17:29.861Z,12.00
2019-04-30T01:20:00.843Z,11.93
2019-04-30T01:22:32.941Z,11.96
2019-04-30T01:25:08.982Z,11.87
2019-04-30T01:27:39.491Z,11.97
2019-04-30T01:30:22.411Z,11.94
2019-04-30T01:32:56.836Z,12.03
2019-04-30T01:35:23.747Z,12.07
2019-04-30T01:37:56.054Z,12.12
2019-04-30T01:40:28.561Z,12.01
2019-04-30T01:43:00.094Z,12.08
2019-04-30T01:45:31.784Z,12.08
2019-04-30T01:48:08.780Z,12.08
2019-04-30T01:50:38.647Z,12.01
2019-04-30T01:53:09.632Z,11.95
2019-04-30T01:56:06.008Z,11.97
2019-04-30T01:58:49.072Z,11.91
2019-04-30T02:01:22.139Z,11.92
2019-04-30T02:03:53.083Z,11.96
2019-04-30T02:06:24.265Z,11.90
2019-04-30T02:08:55.335Z,11.94
2019-04-30T02:11:26.345Z,11.99
2019-04-30T02:13:58.974Z,11.99
2019-04-30T02:16:30.977Z,11.97
2019-04-30T02:19:02.325Z,11.98
2019-04-30T02:21:33.742Z,11.88
2019-04-30T02:24:04.701Z,11.94
2019-04-30T02:26:35.682Z,11.90
2019-04-30T02:29:06.591Z,11.90
2019-04-30T02:31:40.591Z,11.88
2019-04-30T02:34:25.331Z,11.90
2019-04-30T02:37:06.334Z,11.85
2019-04-30T02:39:40.157Z,11.79
2019-04-30T02:42:13.186Z,11.80
2019-04-30T02:44:43.678Z,11.74
2019-04-30T02:47:15.058Z,11.63
2019-04-30T02:49:46.023Z,11.62
2019-04-30T02:52:19.564Z,11.64
2019-04-30T02:54:50.142Z,11.52
2019-04-30T02:57:23.498Z,11.51
2019-04-30T03:00:10.040Z,11.50
2019-04-30T03:02:40.563Z,11.35
2019-04-30T03:05:13.689Z,11.45
2019-04-30T03:07:44.240Z,11.43
2019-04-30T03:10:15.050Z,11.34
2019-04-30T03:12:45.991Z,11.36
2019-04-30T03:15:19.506Z,11.39
2019-04-30T03:18:09.897Z,11.40
2019-04-30T03:21:09.754Z,11.42
2019-04-30T03:23:41.137Z,11.43
2019-04-30T03:26:12.902Z,11.42
2019-04-30T03:28:49.195Z,11.37
2019-04-30T03:31:22.587Z,11.34
2019-04-30T03:33:52.594Z,11.31
2019-04-30T03:36:23.922Z,11.29
2019-04-30T03:38:55.018Z,11.08
2019-04-30T03:41:25.969Z,11.03
2019-04-30T03:44:13.857Z,11.04
2019-04-30T03:46:29.957Z,11.07
2019-04-30T03:49:00.929Z,11.08
2019-04-30T03:51:31.858Z,11.08
2019-04-30T03:54:03.039Z,11.07
2019-04-30T03:56:34.359Z,11.08
2019-04-30T03:59:06.962Z,10.99
2019-04-30T04:01:59.385Z,10.97
2019-04-30T04:04:52.117Z,10.98
2019-04-30T04:07:46.294Z,10.94
2019-04-30T04:10:42.545Z,10.91
2019-04-30T04:13:13.619Z,10.88
2019-04-30T04:15:44.417Z,10.83
2019-04-30T04:18:15.442Z,10.81
2019-04-30T04:20:46.283Z,10.78
2019-04-30T04:23:19.277Z,10.68
2019-04-30T04:25:50.029Z,10.61
2019-04-30T04:28:21.309Z,10.63
2019-04-30T04:30:52.382Z,10.55
2019-04-30T04:33:23.618Z,10.56
2019-04-30T04:35:54.723Z,10.53
2019-04-30T04:38:25.599Z,10.50
2019-04-30T04:40:56.591Z,10.42
2019-04-30T04:43:29.881Z,10.44
2019-04-30T04:46:00.247Z,10.38
2019-04-30T04:48:31.253Z,10.41
2019-04-30T04:51:02.257Z,10.42
2019-04-30T04:53:33.221Z,10.37
2019-04-30T04:56:04.072Z,10.40
2019-04-30T04:58:35.182Z,10.42
2019-04-30T05:01:09.041Z,10.36
2019-04-30T05:03:42.203Z,10.35
2019-04-30T05:06:13.235Z,10.34
2019-04-30T05:08:44.358Z,10.36
2019-04-30T05:11:15.583Z,10.41
2019-04-30T05:13:46.607Z,10.34
2019-04-30T05:16:19.075Z,10.37
2019-04-30T05:18:50.473Z,10.41
2019-04-30T05:21:21.712Z,10.47
2019-04-30T05:23:52.619Z,10.52
2019-04-30T05:26:23.684Z,10.52
2019-04-30T05:28:54.700Z,10.53
2019-04-30T05:31:25.666Z,10.59
2019-04-30T05:33:58.585Z,10.68
2019-04-30T05:36:29.374Z,10.75
2019-04-30T05:39:00.319Z,10.82
2019-04-30T05:41:31.400Z,10.87
2019-04-30T05:44:02.365Z,10.91
2019-04-30T05:46:33.319Z,10.96
2019-04-30T05:49:04.130Z,10.99
2019-04-30T05:51:35.094Z,10.97
2019-04-30T05:54:09.404Z,11.03
2019-04-30T05:56:42.721Z,11.13
2019-04-30T05:59:13.496Z,11.14
2019-04-30T06:01:48.752Z,11.14
2019-04-30T06:04:17.011Z,11.19
2019-04-30T06:06:50.360Z,11.19
2019-04-30T06:09:38.588Z,11.28
2019-04-30T06:12:31.934Z,11.45
2019-04-30T06:15:34.357Z,11.63
2019-04-30T06:18:11.528Z,11.81
2019-04-30T06:20:39.148Z,11.94
2019-04-30T06:23:12.727Z,12.02
2019-04-30T06:26:09.956Z,12.25
2019-04-30T06:28:39.057Z,12.37
2019-04-30T06:31:15.194Z,12.44
2019-04-30T06:33:49.359Z,12.60
2019-04-30T06:36:32.154Z,12.64
2019-04-30T06:39:05.918Z,12.83
2019-04-30T06:41:36.853Z,12.82
2019-04-30T06:44:09.597Z,13.00
2019-04-30T06:46:43.367Z,13.11
2019-04-30T06:49:14.816Z,13.43
2019-04-30T06:51:46.156Z,13.65
2019-04-30T06:54:19.029Z,13.71
2019-04-30T06:56:49.791Z,13.88
2019-04-30T06:59:20.825Z,13.95
2019-04-30T07:01:51.796Z,13.79
2019-04-30T07:04:22.671Z,13.60
2019-04-30T07:06:53.764Z,13.80
2019-04-30T07:09:43.613Z,13.86
2019-04-30T07:12:25.414Z,13.91
2019-04-30T07:14:49.475Z,13.74
2019-04-30T07:17:21.120Z,13.73
2019-04-30T07:19:56.542Z,13.61
2019-04-30T07:22:37.582Z,13.65
2019-04-30T07:24:59.406Z,13.50
2019-04-30T07:27:32.262Z,13.52
2019-04-30T07:30:02.664Z,13.60
2019-04-30T07:32:33.665Z,13.64
2019-04-30T07:35:05.054Z,13.71
2019-04-30T07:37:35.975Z,13.82
2019-04-30T07:40:09.165Z,13.89
2019-04-30T07:42:44.830Z,13.97
2019-04-30T07:45:13.393Z,13.95
2019-04-30T07:47:49.280Z,14.03
2019-04-30T07:50:21.427Z,13.90
2019-04-30T07:53:02.577Z,13.93
2019-04-30T07:55:25.311Z,13.88
2019-04-30T07:57:56.386Z,14.17
2019-04-30T08:00:30.971Z,14.60
2019-04-30T08:03:20.610Z,15.01
2019-04-30T08:05:53.353Z,15.40
2019-04-30T08:08:25.628Z,15.49
2019-04-30T08:10:58.874Z,15.34
2019-04-30T08:13:32.874Z,15.34
2019-04-30T08:16:02.308Z,15.41
2019-04-30T08:18:33.406Z,15.21
2019-04-30T08:21:04.484Z,15.23
2019-04-30T08:23:37.238Z,15.22
2019-04-30T08:26:08.876Z,15.19
2019-04-30T08:28:39.998Z,15.47
2019-04-30T08:31:10.939Z,15.45
2019-04-30T08:33:41.943Z,15.96
2019-04-30T08:36:12.888Z,16.37
2019-04-30T08:38:43.860Z,16.44
2019-04-30T08:41:14.908Z,16.79
2019-04-30T08:43:49.478Z,16.97
2019-04-30T08:46:20.209Z,17.21
2019-04-30T08:48:53.708Z,17.07
2019-04-30T08:51:23.863Z,17.13
2019-04-30T08:53:54.670Z,17.00
2019-04-30T08:56:25.675Z,17.31
2019-04-30T08:58:56.761Z,17.47
2019-04-30T09:01:29.404Z,17.67
2019-04-30T09:04:00.559Z,17.78
2019-04-30T09:06:31.609Z,18.01
2019-04-30T09:09:11.051Z,18.17
2019-04-30T09:11:52.431Z,18.46
2019-04-30T09:14:15.113Z,18.75
2019-04-30T09:16:46.453Z,17.95
2019-04-30T09:19:21.314Z,18.04
2019-04-30T09:21:52.395Z,18.10
2019-04-30T09:24:23.388Z,18.47
2019-04-30T09:26:54.381Z,18.64
2019-04-30T09:29:25.342Z,18.78
2019-04-30T09:31:56.292Z,18.98
2019-04-30T09:34:29.125Z,19.32
2019-04-30T09:37:00.560Z,19.40
2019-04-30T09:39:31.500Z,19.50
2019-04-30T09:42:02.458Z,19.59
2019-04-30T09:44:33.352Z,19.88
2019-04-30T09:47:04.259Z,20.18
2019-04-30T09:49:35.193Z,20.37
2019-04-30T09:52:06.165Z,20.27
2019-04-30T09:54:37.115Z,20.17
2019-04-30T09:57:08.764Z,19.48
2019-04-30T09:59:40.798Z,20.01
2019-04-30T10:02:12.075Z,19.69
2019-04-30T10:04:43.497Z,19.98
2019-04-30T10:07:14.942Z,20.03
2019-04-30T10:09:45.976Z,20.30
2019-04-30T10:12:16.825Z,20.51
2019-04-30T10:14:49.504Z,20.77
2019-04-30T10:17:37.606Z,20.67
2019-04-30T10:20:11.213Z,20.51
2019-04-30T10:22:42.181Z,19.32
2019-04-30T10:25:13.232Z,19.36
2019-04-30T10:27:44.228Z,20.08
2019-04-30T10:30:15.677Z,20.21
2019-04-30T10:32:49.930Z,20.51
2019-04-30T10:35:20.360Z,20.45
2019-04-30T10:37:51.955Z,20.88
2019-04-30T10:40:24.341Z,20.96
2019-04-30T10:42:55.442Z,21.32
2019-04-30T10:45:28.639Z,21.74
2019-04-30T10:47:59.351Z,21.82
2019-04-30T10:50:30.592Z,22.08
2019-04-30T10:53:01.598Z,22.18
2019-04-30T10:55:32.583Z,21.93
2019-04-30T10:58:03.675Z,21.98
2019-04-30T11:00:40.132Z,21.90
2019-04-30T11:03:19.855Z,21.34
2019-04-30T11:05:46.047Z,21.09
2019-04-30T11:08:17.094Z,21.13
2019-04-30T11:10:48.172Z,21.28
2019-04-30T11:13:19.208Z,21.95
2019-04-30T11:15:50.157Z,22.31
2019-04-30T11:18:21.593Z,22.54
2019-04-30T11:20:53.660Z,22.71
2019-04-30T11:23:26.110Z,22.31
2019-04-30T11:25:59.752Z,22.66
2019-04-30T11:28:30.217Z,22.61
2019-04-30T11:31:19.379Z,22.07
2019-04-30T11:33:50.767Z,22.04
2019-04-30T11:36:22.122Z,21.94
2019-04-30T11:38:54.902Z,21.86
2019-04-30T11:41:30.814Z,22.01
2019-04-30T11:43:59.480Z,22.28
2019-04-30T11:47:25.928Z,22.75
2019-04-30T11:49:58.522Z,22.82
2019-04-30T11:52:29.527Z,22.56
2019-04-30T11:55:00.681Z,21.91
2019-04-30T11:57:31.685Z,22.01
2019-04-30T12:00:03.228Z,22.45
2019-04-30T12:02:39.337Z,22.87
2019-04-30T12:05:10.732Z,22.91
2019-04-30T12:08:00.649Z,23.01
2019-04-30T12:10:45.456Z,23.19
2019-04-30T12:13:27.008Z,22.53
2019-04-30T12:15:58.876Z,22.80
2019-04-30T12:18:30.314Z,22.88
2019-04-30T12:21:01.399Z,22.67
2019-04-30T12:23:32.471Z,21.79
2019-04-30T12:26:03.706Z,21.67
2019-04-30T12:28:34.872Z,22.22
2019-04-30T12:31:06.358Z,21.78
2019-04-30T12:33:37.468Z,22.26
2019-04-30T12:36:09.026Z,22.50
2019-04-30T12:38:40.377Z,22.44
2019-04-30T12:41:11.522Z,22.60
2019-04-30T12:43:42.607Z,22.66
2019-04-30T12:46:13.531Z,22.62
2019-04-30T12:49:10.198Z,22.73
2019-04-30T12:52:12.611Z,22.75
2019-04-30T12:54:59.295Z,23.04
2019-04-30T12:57:34.292Z,23.48
2019-04-30T13:00:09.639Z,23.53
2019-04-30T13:02:40.661Z,23.33
2019-04-30T13:05:11.622Z,23.47
2019-04-30T13:07:43.007Z,23.16
2019-04-30T13:10:15.053Z,23.26
2019-04-30T13:12:47.042Z,23.20
2019-04-30T13:15:18.499Z,23.33
2019-04-30T13:17:50.122Z,23.56
2019-04-30T13:20:23.999Z,23.51
2019-04-30T13:22:54.191Z,22.73
2019-04-30T13:25:32.381Z,22.48
2019-04-30T13:28:06.657Z,22.21
2019-04-30T13:30:39.596Z,22.24
2019-04-30T13:33:20.582Z,22.58
2019-04-30T13:35:51.665Z,22.37
2019-04-30T13:38:28.029Z,22.29
2019-04-30T13:41:21.753Z,22.40
2019-04-30T13:44:03.398Z,22.58
2019-04-30T13:46:34.416Z,22.53
2019-04-30T13:49:06.463Z,22.39
2019-04-30T13:51:37.440Z,22.48
2019-04-30T13:54:08.457Z,22.48
2019-04-30T13:56:39.738Z,22.64
2019-04-30T13:59:11.006Z,22.36
2019-04-30T14:01:41.954Z,22.34
2019-04-30T14:04:43.754Z,22.32
2019-04-30T14:07:40.262Z,22.16
2019-04-30T14:10:11.870Z,21.99
2019-04-30T14:12:48.465Z,22.34
2019-04-30T14:15:19.607Z,22.28
2019-04-30T14:17:50.600Z,22.33
2019-04-30T14:20:21.599Z,22.20
2019-04-30T14:22:52.562Z,22.36
2019-04-30T14:25:23.500Z,22.30
2019-04-30T14:27:54.926Z,22.20
2019-04-30T14:30:26.950Z,22.03
2019-04-30T14:32:59.327Z,21.88
2019-04-30T14:35:30.779Z,22.04
2019-04-30T14:38:05.016Z,21.88
2019-04-30T14:40:35.335Z,21.59
2019-04-30T14:43:12.390Z,21.60
2019-04-30T14:46:05.858Z,21.60
2019-04-30T14:48:44.142Z,21.51
2019-04-30T14:51:15.915Z,21.42
2019-04-30T14:54:05.827Z,21.50
2019-04-30T14:56:42.590Z,21.23
2019-04-30T14:59:32.545Z,21.09
2019-04-30T15:02:13.222Z,21.16
2019-04-30T15:04:44.169Z,21.22
2019-04-30T15:07:15.065Z,21.11
2019-04-30T15:09:46.045Z,21.24
2019-04-30T15:12:17.020Z,21.30
2019-04-30T15:14:49.248Z,21.18
2019-04-30T15:17:20.643Z,20.83
2019-04-30T15:19:54.410Z,20.78
2019-04-30T15:22:24.334Z,20.80
2019-04-30T15:24:55.882Z,20.84
2019-04-30T15:27:28.854Z,20.82
2019-04-30T15:29:59.638Z,20.79
2019-04-30T15:32:31.073Z,20.77
2019-04-30T15:35:02.726Z,20.55
2019-04-30T15:37:34.091Z,20.51
2019-04-30T15:40:08.951Z,20.66
2019-04-30T15:42:42.884Z,20.44
2019-04-30T15:45:15.450Z,20.52
2019-04-30T15:47:46.438Z,20.40
2019-04-30T15:50:19.137Z,20.31
2019-04-30T15:52:49.988Z,20.31
2019-04-30T15:55:20.936Z,20.35
2019-04-30T15:58:13.710Z,20.36
2019-04-30T16:00:44.699Z,20.31
2019-04-30T16:03:20.783Z,20.28
2019-04-30T16:05:52.995Z,20.11
2019-04-30T16:08:31.863Z,20.04
2019-04-30T16:11:21.658Z,19.88
2019-04-30T16:14:20.729Z,19.77
2019-04-30T16:17:02.685Z,19.66
2019-04-30T16:19:33.745Z,19.65
2019-04-30T16:22:05.007Z,19.70
2019-04-30T16:24:38.682Z,19.75
2019-04-30T16:27:09.643Z,19.60
2019-04-30T16:29:40.831Z,19.64
2019-04-30T16:32:11.957Z,19.42
2019-04-30T16:34:43.286Z,19.35
2019-04-30T16:37:14.261Z,19.18
2019-04-30T16:39:45.288Z,19.12
2019-04-30T16:42:16.508Z,19.01
2019-04-30T16:44:47.528Z,18.90
2019-04-30T16:47:19.868Z,19.00
2019-04-30T16:49:51.679Z,18.79
2019-04-30T16:52:22.734Z,18.91
2019-04-30T16:54:53.836Z,18.91
2019-04-30T16:57:24.768Z,18.95
2019-04-30T16:59:55.738Z,18.64
2019-04-30T17:02:29.328Z,18.60
2019-04-30T17:05:19.813Z,18.44
2019-04-30T17:08:02.324Z,18.32
2019-04-30T17:10:45.310Z,18.37
2019-04-30T17:13:23.066Z,18.55
2019-04-30T17:15:56.934Z,18.50
2019-04-30T17:18:29.738Z,18.28
2019-04-30T17:21:00.534Z,18.08
2019-04-30T17:23:31.468Z,18.14
2019-04-30T17:26:02.438Z,18.02
2019-04-30T17:28:33.431Z,17.82
2019-04-30T17:31:04.473Z,17.86
2019-04-30T17:33:35.622Z,17.86
2019-04-30T17:36:08.709Z,17.72
2019-04-30T17:38:39.956Z,17.80
2019-04-30T17:41:11.357Z,17.58
2019-04-30T17:43:42.503Z,17.52
2019-04-30T17:46:13.551Z,17.58
2019-04-30T17:48:44.496Z,17.51
2019-04-30T17:51:15.698Z,17.34
2019-04-30T17:54:04.479Z,17.37
2019-04-30T17:56:35.596Z,17.30
2019-04-30T17:59:06.532Z,17.24
2019-04-30T18:01:40.098Z,17.21
2019-04-30T18:04:11.960Z,17.30
2019-04-30T18:06:44.002Z,17.25
2019-04-30T18:09:15.277Z,17.13
2019-04-30T18:11:49.572Z,17.06
2019-04-30T18:14:22.102Z,17.08
2019-04-30T18:16:52.962Z,17.01
2019-04-30T18:19:30.675Z,16.89
2019-04-30T18:22:06.040Z,16.66
2019-04-30T18:24:54.852Z,16.67
2019-04-30T18:27:43.047Z,16.64
2019-04-30T18:30:04.624Z,16.66
2019-04-30T18:32:35.663Z,16.61
2019-04-30T18:35:08.338Z,16.63
2019-04-30T18:37:39.522Z,16.55
2019-04-30T18:40:10.810Z,16.57
2019-04-30T18:42:42.046Z,16.60
2019-04-30T18:45:13.333Z,16.62
2019-04-30T18:48:02.457Z,16.62
2019-04-30T18:50:31.734Z,16.65
2019-04-30T18:53:05.427Z,16.61
2019-04-30T18:55:36.327Z,16.61
2019-04-30T18:58:08.874Z,16.60
2019-04-30T19:00:44.516Z,16.59
2019-04-30T19:03:21.132Z,16.57
2019-04-30T19:06:03.179Z,16.56
2019-04-30T19:08:44.128Z,16.53
2019-04-30T19:11:52.379Z,16.49
2019-04-30T19:14:34.126Z,16.36
2019-04-30T19:17:30.562Z,16.29
2019-04-30T19:20:21.519Z,16.20
2019-04-30T19:23:06.212Z,16.10
2019-04-30T19:25:43.765Z,16.07
2019-04-30T19:28:22.571Z,16.02
2019-04-30T19:31:01.002Z,15.99
2019-04-30T19:33:33.245Z,15.89
2019-04-30T19:36:07.014Z,15.86
2019-04-30T19:38:45.886Z,15.78
2019-04-30T19:41:28.750Z,15.75
2019-04-30T19:44:11.111Z,15.61
2019-04-30T19:46:42.284Z,15.55
2019-04-30T19:49:19.266Z,15.38
2019-04-30T19:51:55.911Z,15.25
2019-04-30T19:54:43.254Z,15.23
2019-04-30T20:00:32.045Z,15.20
2019-04-30T20:03:03.268Z,15.13
2019-04-30T20:05:39.217Z,15.03
2019-04-30T20:08:12.328Z,14.99
2019-04-30T20:10:49.903Z,14.93
2019-04-30T20:13:33.144Z,14.91
2019-04-30T20:15:55.714Z,14.84
2019-04-30T20:18:33.817Z,14.74
2019-04-30T20:21:11.050Z,14.67
2019-04-30T20:23:57.702Z,14.64
2019-04-30T20:26:39.718Z,14.60
2019-04-30T20:29:44.911Z,14.52
2019-04-30T20:32:20.742Z,14.42
2019-04-30T20:35:00.537Z,14.39
2019-04-30T20:37:35.394Z,14.36
2019-04-30T20:40:14.581Z,14.34
2019-04-30T20:42:48.651Z,14.35
2019-04-30T20:45:24.393Z,14.21
2019-04-30T20:47:56.562Z,14.23
2019-04-30T20:50:37.822Z,14.22
2019-04-30T20:53:15.040Z,14.14
2019-04-30T20:55:59.395Z,14.06
2019-04-30T20:58:30.444Z,14.04
2019-04-30T21:01:06.306Z,13.92
2019-04-30T21:03:33.964Z,13.89
2019-04-30T21:06:04.925Z,13.86
2019-04-30T21:08:36.020Z,13.70
2019-04-30T21:11:07.022Z,13.68
2019-04-30T21:13:52.597Z,13.65
2019-04-30T21:16:26.631Z,13.66
2019-04-30T21:18:56.138Z,13.65
2019-04-30T21:21:28.758Z,13.60
2019-04-30T21:24:00.102Z,13.55
2019-04-30T21:26:36.776Z,13.54
2019-04-30T21:29:13.154Z,13.52
2019-04-30T21:32:03.383Z,13.51
2019-04-30T21:34:49.427Z,13.51
2019-04-30T21:37:20.824Z,13.47
2019-04-30T21:39:51.879Z,13.44
2019-04-30T21:42:22.886Z,13.43
2019-04-30T21:44:55.733Z,13.38
2019-04-30T21:47:26.840Z,13.37
2019-04-30T21:49:57.759Z,13.30
2019-04-30T21:52:28.880Z,13.26
2019-04-30T21:54:59.899Z,13.21
2019-04-30T21:57:30.989Z,13.20
2019-04-30T22:00:06.319Z,13.16
2019-04-30T22:02:38.343Z,13.13
2019-04-30T22:05:09.980Z,13.11
2019-04-30T22:07:40.891Z,13.06
2019-04-30T22:10:11.950Z,13.00
2019-04-30T22:12:42.864Z,12.96
2019-04-30T22:15:15.208Z,12.91
2019-04-30T22:17:46.117Z,12.85
2019-04-30T22:20:18.736Z,12.86
2019-04-30T22:22:49.867Z,12.72
2019-04-30T22:25:21.220Z,12.63
2019-04-30T22:27:52.621Z,12.55
2019-04-30T22:30:23.675Z,12.53
2019-04-30T22:32:54.711Z,12.53
2019-04-30T22:35:51.070Z,12.51
2019-04-30T22:38:26.137Z,12.48
2019-04-30T22:40:58.854Z,12.37
2019-04-30T22:43:29.764Z,12.32
2019-04-30T22:46:05.530Z,12.25
2019-04-30T22:48:36.394Z,12.17
2019-04-30T22:51:07.308Z,12.11
2019-04-30T22:53:38.261Z,11.98
2019-04-30T22:56:09.203Z,11.99
2019-04-30T22:58:40.145Z,12.00
2019-04-30T23:01:29.586Z,11.96
2019-04-30T23:04:05.357Z,11.95
2019-04-30T23:06:36.391Z,11.90
2019-04-30T23:09:09.143Z,11.84
2019-04-30T23:11:40.181Z,11.66
2019-04-30T23:14:11.190Z,11.59
2019-04-30T23:16:42.170Z,11.52
2019-04-30T23:19:13.257Z,11.53
2019-04-30T23:21:44.221Z,11.55
2019-04-30T23:24:15.172Z,11.55
2019-04-30T23:26:46.063Z,11.54
2019-04-30T23:29:17.110Z,11.50
2019-04-30T23:31:48.144Z,11.40
2019-04-30T23:34:19.214Z,11.33
2019-04-30T23:36:50.211Z,11.33
2019-04-30T23:39:21.960Z,11.35
2019-04-30T23:41:53.256Z,11.28
2019-04-30T23:44:26.130Z,11.26
2019-04-30T23:46:57.420Z,11.22
2019-04-30T23:49:28.553Z,11.19
2019-04-30T23:51:59.559Z,11.16
2019-04-30T23:54:30.400Z,11.15
2019-04-30T23:57:01.346Z,11.11
2019-04-30T23:59:32.208Z,11.03
